Time;durP1;ratioP1;P1;durP2;ratioP2;P2;SDS_P1;SDS_P2;PMS_P1;PMS_P2;Temp;Humidity;BMP_temperature;BMP_pressure;BME280_temperature;BME280_humidity;BME280_pressure;Samples;Min_cycle;Max_cycle;Signal;HPM_P1;HPM_P2
2023/10/05 00:03:46;;;;;;;7.30;5.77;;;17.30;99.90;;;;;;4976422;28;20940;-62
2023/10/05 00:06:23;;;;;;;11.87;5.83;;;17.30;99.90;;;;;;4965869;28;20419;-63
2023/10/05 00:08:50;;;;;;;7.07;5.53;;;17.30;99.90;;;;;;4976843;28;20396;-63
2023/10/05 00:11:28;;;;;;;6.70;4.90;;;17.20;99.90;;;;;;4975903;28;20527;-63
2023/10/05 00:13:59;;;;;;;7.33;5.70;;;17.20;99.90;;;;;;4975516;28;20431;-63
2023/10/05 00:16:36;;;;;;;8.57;5.10;;;17.20;99.90;;;;;;4959459;28;20411;-63
2023/10/05 00:19:05;;;;;;;6.33;5.70;;;17.20;99.90;;;;;;4976009;28;20396;-60
2023/10/05 00:21:35;;;;;;;8.13;5.40;;;17.20;99.90;;;;;;4976329;28;20763;-64
2023/10/05 00:24:02;;;;;;;7.50;5.50;;;17.20;99.90;;;;;;4975849;28;20403;-60
2023/10/05 00:26:32;;;;;;;7.50;5.30;;;17.10;99.90;;;;;;4975933;28;20538;-62
2023/10/05 00:31:47;;;;;;;6.73;5.80;;;17.10;99.90;;;;;;4932799;28;20444;-63
2023/10/05 00:34:24;;;;;;;10.20;5.17;;;17.10;99.90;;;;;;4939002;29;20887;-63
2023/10/05 00:36:50;;;;;;;9.10;5.50;;;17.10;99.90;;;;;;4939893;29;20423;-63
2023/10/05 00:39:21;;;;;;;6.77;4.90;;;17.10;99.90;;;;;;4956390;29;20413;-63
2023/10/05 00:41:57;;;;;;;7.27;5.40;;;17.10;99.90;;;;;;4956900;29;20822;-63
2023/10/05 00:44:23;;;;;;;5.03;4.47;;;17.10;99.90;;;;;;4970354;28;20432;-63
2023/10/05 00:46:49;;;;;;;5.77;4.80;;;17.10;99.90;;;;;;4975546;28;20534;-63
2023/10/05 00:49:23;;;;;;;7.43;4.83;;;17.10;99.90;;;;;;4975089;28;20553;-63
2023/10/05 00:52:11;;;;;;;11.30;4.57;;;17.10;99.90;;;;;;4975521;28;20759;-63
2023/10/05 00:54:40;;;;;;;7.23;4.70;;;17.10;99.90;;;;;;4975284;28;20779;-63
2023/10/05 00:57:12;;;;;;;9.23;5.50;;;17.10;99.90;;;;;;4974257;28;20459;-61
2023/10/05 00:59:38;;;;;;;7.23;4.73;;;17.10;99.90;;;;;;4975922;28;20404;-63
2023/10/05 01:02:14;;;;;;;5.53;4.97;;;17.10;99.90;;;;;;4975324;28;20928;-60
2023/10/05 01:07:18;;;;;;;5.70;4.30;;;17.10;99.90;;;;;;4955579;29;20523;-61
2023/10/05 01:10:21;;;;;;;6.87;4.23;;;17.10;99.90;;;;;;4956808;29;20424;-62
2023/10/05 01:12:47;;;;;;;4.60;4.20;;;17.10;99.90;;;;;;4956666;28;20420;-62
2023/10/05 01:15:22;;;;;;;6.07;5.47;;;17.00;99.90;;;;;;4974048;28;20438;-62
2023/10/05 01:17:51;;;;;;;5.47;4.90;;;17.00;99.90;;;;;;4975527;28;20454;-62
2023/10/05 01:22:49;;;;;;;4.87;4.37;;;17.10;99.90;;;;;;4975435;28;20415;-62
2023/10/05 01:25:15;;;;;;;5.43;4.90;;;17.10;99.90;;;;;;4974203;28;20431;-62
2023/10/05 01:27:45;;;;;;;5.10;4.27;;;17.10;99.90;;;;;;4957700;28;20610;-62
2023/10/05 01:30:14;;;;;;;5.73;4.30;;;17.10;99.90;;;;;;4957185;28;20413;-63
2023/10/05 01:32:47;;;;;;;6.60;4.60;;;17.00;99.90;;;;;;4975098;28;20933;-62
2023/10/05 01:35:14;;;;;;;4.93;4.40;;;17.00;99.90;;;;;;4974596;28;20458;-62
2023/10/05 01:37:45;;;;;;;6.83;4.97;;;17.00;99.90;;;;;;4957837;28;20424;-62
2023/10/05 01:40:19;;;;;;;4.70;4.13;;;17.00;99.90;;;;;;4974366;28;20420;-62
2023/10/05 01:42:51;;;;;;;5.60;4.13;;;17.00;99.90;;;;;;4956761;28;20411;-62
2023/10/05 01:45:33;;;;;;;12.00;4.90;;;17.00;99.90;;;;;;4974164;28;20454;-62
2023/10/05 01:48:04;;;;;;;6.20;4.23;;;17.00;99.90;;;;;;4975326;28;20510;-62
2023/10/05 01:50:32;;;;;;;6.60;4.70;;;16.90;99.90;;;;;;4974610;28;20396;-62
2023/10/05 01:55:28;;;;;;;4.50;4.10;;;17.00;99.90;;;;;;4974115;28;20416;-61
2023/10/05 01:57:54;;;;;;;8.00;4.03;;;17.00;99.90;;;;;;4958345;28;20531;-62
2023/10/05 02:00:22;;;;;;;6.10;4.83;;;17.00;99.90;;;;;;4961160;28;20423;-62
2023/10/05 02:02:48;;;;;;;6.50;4.50;;;17.00;99.90;;;;;;4974428;28;20420;-62
2023/10/05 02:05:15;;;;;;;5.17;3.90;;;17.00;99.90;;;;;;4973751;28;20403;-62
2023/10/05 02:07:41;;;;;;;4.80;4.20;;;17.00;99.90;;;;;;4974496;28;20200;-62
2023/10/05 02:10:11;;;;;;;5.50;4.00;;;17.00;99.90;;;;;;4974151;28;20412;-59
2023/10/05 02:12:38;;;;;;;7.00;4.00;;;17.00;99.90;;;;;;4973524;28;20959;-62
2023/10/05 02:15:13;;;;;;;7.57;4.10;;;17.00;99.90;;;;;;4974201;28;20516;-62
2023/10/05 02:17:42;;;;;;;5.80;4.17;;;17.00;99.90;;;;;;4974087;28;20911;-62
2023/10/05 02:20:17;;;;;;;6.43;3.93;;;16.90;99.90;;;;;;4973651;28;20888;-59
2023/10/05 02:22:47;;;;;;;10.53;4.47;;;16.90;99.90;;;;;;4974273;28;20486;-63
2023/10/05 02:25:18;;;;;;;6.90;4.10;;;16.80;99.90;;;;;;4973347;28;20423;-62
2023/10/05 02:27:46;;;;;;;4.53;3.73;;;16.80;99.90;;;;;;4974014;28;20940;-62
2023/10/05 02:30:14;;;;;;;7.43;4.10;;;16.80;99.90;;;;;;4973362;28;20428;-62
2023/10/05 02:32:40;;;;;;;8.00;4.67;;;16.90;99.90;;;;;;4973860;28;20770;-62
2023/10/05 02:35:19;;;;;;;5.80;4.53;;;16.80;99.90;;;;;;4966850;28;20484;-60
2023/10/05 02:37:48;;;;;;;6.30;4.30;;;16.90;99.90;;;;;;4954736;29;20413;-62
2023/10/05 02:40:15;;;;;;;6.70;3.60;;;16.90;99.90;;;;;;4964376;28;20526;-62
2023/10/05 02:42:41;;;;;;;4.23;3.47;;;16.90;99.90;;;;;;4973789;28;20459;-62
2023/10/05 02:45:09;;;;;;;5.13;4.00;;;16.90;99.90;;;;;;4973841;28;20404;-59
2023/10/05 02:47:34;;;;;;;4.40;3.80;;;16.90;99.90;;;;;;4973163;28;20459;-62
2023/10/05 02:50:00;;;;;;;5.53;3.70;;;16.90;99.90;;;;;;4974089;28;20889;-62
2023/10/05 02:52:26;;;;;;;4.80;3.70;;;16.90;99.90;;;;;;4972918;28;20184;-62
2023/10/05 02:54:52;;;;;;;5.30;3.33;;;16.90;99.90;;;;;;4956572;28;20176;-62
2023/10/05 02:57:19;;;;;;;6.67;3.57;;;16.80;99.90;;;;;;4972479;28;20451;-62
2023/10/05 02:59:46;;;;;;;8.17;3.80;;;16.80;99.90;;;;;;4973531;28;20195;-62
2023/10/05 03:02:16;;;;;;;6.70;4.00;;;16.80;99.90;;;;;;4973166;28;20439;-59
2023/10/05 03:04:49;;;;;;;5.53;3.70;;;16.70;99.90;;;;;;4973812;28;20404;-62
2023/10/05 03:07:17;;;;;;;5.73;4.00;;;16.80;99.90;;;;;;4955630;28;20526;-61
2023/10/05 03:09:46;;;;;;;10.20;4.00;;;16.80;99.90;;;;;;4972635;28;20950;-62
2023/10/05 03:12:12;;;;;;;8.13;5.10;;;16.80;99.90;;;;;;4972762;28;20434;-59
2023/10/05 03:14:40;;;;;;;6.43;4.17;;;16.70;99.90;;;;;;4973278;28;20416;-62
2023/10/05 03:17:12;;;;;;;8.00;4.40;;;16.70;99.90;;;;;;4973497;28;20415;-63
2023/10/05 03:19:39;;;;;;;7.20;4.47;;;16.80;99.90;;;;;;4956200;28;20901;-62
2023/10/05 03:22:07;;;;;;;8.83;4.20;;;16.80;99.90;;;;;;4973602;28;20470;-62
2023/10/05 03:24:36;;;;;;;7.87;5.00;;;16.80;99.90;;;;;;4972557;28;20955;-62
2023/10/05 03:27:07;;;;;;;4.23;3.73;;;16.80;99.90;;;;;;4972660;28;20479;-62
2023/10/05 03:29:38;;;;;;;5.60;4.10;;;16.80;99.90;;;;;;4955511;28;20420;-62
2023/10/05 03:32:13;;;;;;;7.00;4.00;;;16.80;99.90;;;;;;4954215;29;20444;-62
2023/10/05 03:34:52;;;;;;;6.90;4.13;;;16.80;99.90;;;;;;4953791;29;20412;-62
2023/10/05 03:37:18;;;;;;;5.47;4.97;;;16.80;99.90;;;;;;4936133;29;20815;-62
2023/10/05 03:39:54;;;;;;;4.70;3.70;;;16.90;99.90;;;;;;4962648;28;20438;-62
2023/10/05 03:42:23;;;;;;;6.67;4.40;;;16.90;99.90;;;;;;4972464;28;20179;-62
2023/10/05 03:45:11;;;;;;;5.47;4.00;;;16.90;99.90;;;;;;4972813;28;20428;-62
2023/10/05 03:47:37;;;;;;;7.40;4.13;;;16.90;99.90;;;;;;4955473;28;20527;-62
2023/10/05 03:50:07;;;;;;;5.80;3.43;;;16.90;99.90;;;;;;4973011;28;20495;-62
2023/10/05 03:52:33;;;;;;;7.60;3.90;;;16.90;99.90;;;;;;4972352;28;20408;-62
2023/10/05 03:55:10;;;;;;;5.17;4.20;;;16.80;99.90;;;;;;4972828;28;20408;-62
2023/10/05 03:57:37;;;;;;;4.80;4.40;;;16.80;99.90;;;;;;4972308;28;20430;-62
2023/10/05 04:00:23;;;;;;;7.07;4.40;;;16.80;99.90;;;;;;4973097;28;20485;-62
2023/10/05 04:02:53;;;;;;;9.37;4.87;;;16.80;99.90;;;;;;4973116;28;20400;-62
2023/10/05 04:05:21;;;;;;;5.77;3.83;;;16.70;99.90;;;;;;4957243;28;20775;-62
2023/10/05 04:08:00;;;;;;;8.17;4.57;;;16.80;99.90;;;;;;4953612;29;20510;-62
2023/10/05 04:10:45;;;;;;;5.40;3.77;;;16.70;99.90;;;;;;4967042;28;20462;-62
2023/10/05 04:13:14;;;;;;;5.03;4.57;;;16.70;99.90;;;;;;4972712;28;20415;-62
2023/10/05 04:15:40;;;;;;;7.73;4.30;;;16.70;99.90;;;;;;4972882;28;20453;-62
2023/10/05 04:18:11;;;;;;;8.00;3.60;;;16.60;99.90;;;;;;4972638;28;20451;-62
2023/10/05 04:20:37;;;;;;;8.30;3.80;;;16.60;99.90;;;;;;4972662;28;21199;-62
2023/10/05 04:23:03;;;;;;;8.13;2.80;;;16.60;99.90;;;;;;4976076;28;20419;-62
2023/10/05 04:25:29;;;;;;;3.77;3.40;;;16.60;99.90;;;;;;4975330;28;20419;-62
2023/10/05 04:27:55;;;;;;;4.10;3.20;;;16.60;99.90;;;;;;4976285;28;20479;-62
2023/10/05 04:30:21;;;;;;;6.43;4.43;;;16.60;99.90;;;;;;4975529;28;20271;-61
2023/10/05 04:32:48;;;;;;;4.97;3.43;;;16.60;99.90;;;;;;4976266;28;20418;-62
2023/10/05 04:35:27;;;;;;;7.23;3.93;;;16.60;99.90;;;;;;4975867;28;20420;-59
2023/10/05 04:37:54;;;;;;;8.10;4.97;;;16.60;99.90;;;;;;4976280;28;20400;-62
2023/10/05 04:40:24;;;;;;;8.40;3.57;;;16.70;99.90;;;;;;4974419;28;20915;-61
2023/10/05 04:42:59;;;;;;;6.23;5.60;;;16.60;99.90;;;;;;4975456;28;20419;-62
2023/10/05 04:45:26;;;;;;;6.50;4.50;;;16.70;99.90;;;;;;4974837;28;20474;-62
2023/10/05 04:47:58;;;;;;;6.40;3.80;;;16.70;99.90;;;;;;4976133;28;20459;-62
2023/10/05 04:50:25;;;;;;;5.07;3.87;;;16.70;99.90;;;;;;4975384;28;20408;-62
2023/10/05 04:52:52;;;;;;;5.93;3.80;;;16.60;99.90;;;;;;4976060;28;20407;-62
2023/10/05 04:55:22;;;;;;;6.50;4.03;;;16.60;99.90;;;;;;4974908;28;20408;-62
2023/10/05 04:57:55;;;;;;;4.43;3.83;;;16.70;99.90;;;;;;4971392;28;20425;-62
2023/10/05 05:08:27;;;;;;;8.83;5.17;;;16.70;99.90;;;;;;4973814;28;20864;-64
2023/10/05 05:10:53;;;;;;;8.53;4.80;;;16.70;99.90;;;;;;4974851;28;20463;-64
2023/10/05 05:13:22;;;;;;;6.40;3.23;;;16.70;99.90;;;;;;4974921;28;20904;-62
2023/10/05 05:15:47;;;;;;;8.17;3.80;;;16.70;99.90;;;;;;4958666;28;20458;-65
2023/10/05 05:18:14;;;;;;;11.90;4.50;;;16.60;99.90;;;;;;4975932;28;20416;-65
2023/10/05 05:20:47;;;;;;;5.03;4.37;;;16.60;99.90;;;;;;4975567;28;20168;-65
2023/10/05 05:23:13;;;;;;;6.03;3.70;;;16.70;99.90;;;;;;4975807;28;20518;-65
2023/10/05 05:25:42;;;;;;;6.80;3.80;;;16.70;99.90;;;;;;4974513;28;20938;-65
2023/10/05 05:28:08;;;;;;;6.97;3.77;;;16.70;99.90;;;;;;4957831;28;20554;-65
2023/10/05 05:30:36;;;;;;;7.20;3.37;;;16.70;99.90;;;;;;4974673;28;20486;-65
2023/10/05 05:33:10;;;;;;;4.97;4.03;;;16.70;99.90;;;;;;4974002;28;20784;-65
2023/10/05 05:35:39;;;;;;;4.17;3.67;;;16.70;99.90;;;;;;4974076;28;20466;-67
2023/10/05 05:38:09;;;;;;;8.70;4.40;;;16.60;99.90;;;;;;4973458;28;20435;-65
2023/10/05 05:40:36;;;;;;;7.43;4.57;;;16.60;99.90;;;;;;4969852;28;20427;-67
2023/10/05 05:43:11;;;;;;;6.70;5.57;;;16.60;99.90;;;;;;4974272;28;20424;-66
2023/10/05 05:45:43;;;;;;;7.83;4.50;;;16.50;99.90;;;;;;4972271;28;20485;-65
2023/10/05 05:48:13;;;;;;;7.80;4.50;;;16.50;99.90;;;;;;4956810;28;20455;-67
2023/10/05 05:50:43;;;;;;;6.73;3.63;;;16.60;99.90;;;;;;4974390;28;20450;-66
2023/10/05 05:53:11;;;;;;;6.03;3.77;;;16.70;99.90;;;;;;4975152;28;20404;-67
2023/10/05 05:55:43;;;;;;;8.23;5.97;;;16.90;99.90;;;;;;4957602;28;20781;-67
2023/10/05 05:58:14;;;;;;;5.30;4.53;;;17.20;99.90;;;;;;4974455;28;20416;-64
2023/10/05 06:00:40;;;;;;;9.00;4.20;;;17.40;99.90;;;;;;4973706;28;20420;-67
2023/10/05 06:03:11;;;;;;;6.40;4.40;;;17.70;99.90;;;;;;4975149;28;20419;-67
2023/10/05 06:05:36;;;;;;;5.03;4.50;;;17.90;99.90;;;;;;4974442;28;20403;-67
2023/10/05 06:08:03;;;;;;;5.50;4.70;;;18.00;99.90;;;;;;4957401;28;20800;-67
2023/10/05 06:10:34;;;;;;;6.63;4.03;;;18.20;99.90;;;;;;4963263;28;20416;-67
2023/10/05 06:13:01;;;;;;;5.13;3.90;;;18.30;99.90;;;;;;4957397;28;20408;-67
2023/10/05 06:15:28;;;;;;;7.37;4.40;;;18.40;99.90;;;;;;4974012;28;20817;-67
2023/10/05 06:17:54;;;;;;;5.13;3.50;;;18.40;99.90;;;;;;4956909;28;20455;-71
2023/10/05 06:20:20;;;;;;;5.60;5.03;;;18.60;99.90;;;;;;4973482;28;21043;-62
2023/10/05 06:22:47;;;;;;;8.93;4.07;;;18.50;99.90;;;;;;4974503;28;20191;-68
2023/10/05 06:25:17;;;;;;;4.60;3.97;;;18.60;99.90;;;;;;4956593;28;20231;-65
2023/10/05 06:27:49;;;;;;;4.83;4.23;;;18.60;99.90;;;;;;4973880;28;20824;-66
2023/10/05 06:30:15;;;;;;;5.33;4.83;;;18.70;99.90;;;;;;4955087;28;20487;-65
2023/10/05 06:32:44;;;;;;;6.10;4.43;;;18.80;99.90;;;;;;4972768;28;20524;-66
2023/10/05 06:35:13;;;;;;;10.17;4.70;;;18.80;99.90;;;;;;4974091;28;20419;-66
2023/10/05 06:37:39;;;;;;;3.90;3.27;;;18.90;99.90;;;;;;4973729;28;20416;-66
2023/10/05 06:40:12;;;;;;;4.13;3.63;;;19.00;99.90;;;;;;4974153;28;20739;-66
2023/10/05 06:42:42;;;;;;;7.97;4.00;;;19.00;99.90;;;;;;4973862;28;20416;-66
2023/10/05 06:45:11;;;;;;;4.10;3.00;;;19.00;99.90;;;;;;4972687;28;20420;-66
2023/10/05 06:47:40;;;;;;;6.63;4.10;;;19.10;99.90;;;;;;4973608;28;20482;-65
2023/10/05 06:50:10;;;;;;;6.47;4.07;;;19.10;99.90;;;;;;4965383;28;20443;-65
2023/10/05 06:52:42;;;;;;;5.77;3.40;;;19.10;99.90;;;;;;4968906;28;20435;-65
2023/10/05 06:55:12;;;;;;;11.13;4.87;;;19.10;99.90;;;;;;4974151;28;20768;-65
2023/10/05 06:57:45;;;;;;;7.03;4.60;;;19.10;99.90;;;;;;4970667;28;20478;-65
2023/10/05 07:00:22;;;;;;;7.03;3.30;;;19.10;99.90;;;;;;4955570;28;20817;-78
2023/10/05 07:02:58;;;;;;;6.00;3.87;;;19.10;99.90;;;;;;4973949;28;20450;-68
2023/10/05 07:05:24;;;;;;;6.90;4.47;;;19.00;99.90;;;;;;4973139;28;20415;-67
2023/10/05 07:07:50;;;;;;;5.87;4.47;;;19.00;99.90;;;;;;4973632;28;20547;-69
2023/10/05 07:10:17;;;;;;;5.50;3.60;;;19.00;99.90;;;;;;4973838;28;20455;-68
2023/10/05 07:12:46;;;;;;;8.00;4.83;;;19.00;99.90;;;;;;4955525;28;21188;-68
2023/10/05 07:15:21;;;;;;;7.20;5.23;;;19.00;99.90;;;;;;4973454;28;20438;-69
2023/10/05 07:17:48;;;;;;;5.10;4.60;;;18.90;99.90;;;;;;4973636;28;20503;-68
2023/10/05 07:20:18;;;;;;;5.67;3.97;;;18.80;99.90;;;;;;4972913;28;20428;-69
2023/10/05 07:22:45;;;;;;;9.70;4.43;;;18.80;99.90;;;;;;4972405;28;20478;-69
2023/10/05 07:25:12;;;;;;;7.17;4.73;;;18.80;99.90;;;;;;4973729;28;20462;-69
2023/10/05 07:27:39;;;;;;;6.80;5.40;;;18.80;99.90;;;;;;4971820;28;20511;-69
2023/10/05 07:30:06;;;;;;;10.23;5.10;;;18.80;99.90;;;;;;4973809;28;20443;-69
2023/10/05 07:32:34;;;;;;;5.70;4.77;;;18.80;99.90;;;;;;4971437;28;20938;-68
2023/10/05 07:35:01;;;;;;;6.97;4.90;;;18.90;99.90;;;;;;4954504;28;20405;-68
2023/10/05 07:37:27;;;;;;;8.13;5.40;;;19.00;99.90;;;;;;4968681;28;20440;-67
2023/10/05 07:39:54;;;;;;;4.83;4.00;;;19.00;99.90;;;;;;4973694;28;20471;-68
2023/10/05 07:42:20;;;;;;;5.37;4.53;;;19.10;99.90;;;;;;4973654;28;20172;-68
2023/10/05 07:44:45;;;;;;;7.30;4.53;;;19.10;99.90;;;;;;4972808;28;20412;-69
2023/10/05 07:47:11;;;;;;;4.67;4.27;;;19.10;99.90;;;;;;4956185;28;20492;-68
2023/10/05 07:49:38;;;;;;;7.33;5.53;;;19.10;99.90;;;;;;4972682;28;20185;-68
2023/10/05 07:52:07;;;;;;;8.40;3.87;;;19.10;99.90;;;;;;4971933;28;20185;-69
2023/10/05 07:54:34;;;;;;;15.97;10.03;;;19.10;99.90;;;;;;4972623;28;20432;-68
2023/10/05 07:57:01;;;;;;;11.40;6.47;;;19.10;99.90;;;;;;4975843;28;20563;-69
2023/10/05 07:59:28;;;;;;;5.90;4.47;;;19.10;99.90;;;;;;4976472;28;20408;-69
2023/10/05 08:01:55;;;;;;;4.87;4.17;;;19.10;99.90;;;;;;4974371;28;20421;-70
2023/10/05 08:04:22;;;;;;;6.60;5.70;;;19.10;99.90;;;;;;4959595;28;20441;-70
2023/10/05 08:06:49;;;;;;;7.13;3.70;;;19.10;99.90;;;;;;4957462;28;20451;-66
2023/10/05 08:09:15;;;;;;;8.10;5.40;;;19.10;99.90;;;;;;4975348;28;20518;-69
2023/10/05 08:11:44;;;;;;;67.17;41.17;;;19.20;99.90;;;;;;4972003;28;20423;-70
2023/10/05 08:14:11;;;;;;;104.10;71.33;;;19.10;99.90;;;;;;4971043;28;20769;-68
2023/10/05 08:16:37;;;;;;;13.80;9.80;;;19.20;99.90;;;;;;4975570;28;20427;-67
2023/10/05 08:19:05;;;;;;;4.67;4.20;;;19.10;99.90;;;;;;4975612;28;20423;-67
2023/10/05 08:21:32;;;;;;;5.73;5.00;;;19.10;99.90;;;;;;4961598;28;20532;-63
2023/10/05 08:23:58;;;;;;;9.03;6.67;;;19.10;99.90;;;;;;4974549;28;20486;-68
2023/10/05 08:26:28;;;;;;;5.97;5.13;;;19.00;99.90;;;;;;4973193;28;20411;-68
2023/10/05 08:28:55;;;;;;;8.07;6.57;;;19.00;99.90;;;;;;4975791;28;20455;-70
2023/10/05 08:31:25;;;;;;;6.33;4.27;;;19.00;99.90;;;;;;4976716;28;20419;-71
2023/10/05 08:33:54;;;;;;;14.93;11.07;;;19.00;99.90;;;;;;4976186;28;20522;-71
2023/10/05 08:36:23;;;;;;;8.87;5.63;;;19.00;99.90;;;;;;4975068;28;20919;-72
2023/10/05 08:38:49;;;;;;;13.30;8.67;;;18.80;99.90;;;;;;4975192;28;20478;-71
2023/10/05 08:41:35;;;;;;;7.67;6.00;;;18.80;99.90;;;;;;4976471;28;20412;-72
2023/10/05 08:44:16;;;;;;;18.00;12.47;;;18.80;99.90;;;;;;4976610;28;20396;-72
2023/10/05 08:46:43;;;;;;;11.03;7.20;;;18.60;99.90;;;;;;4975624;28;20453;-71
2023/10/05 08:49:12;;;;;;;53.83;37.30;;;18.50;99.90;;;;;;4976664;28;20412;-72
2023/10/05 08:51:39;;;;;;;9.77;7.97;;;18.50;99.90;;;;;;4975178;28;20518;-72
2023/10/05 08:54:13;;;;;;;11.40;7.93;;;18.70;99.90;;;;;;4959130;28;20499;-72
2023/10/05 08:56:47;;;;;;;9.33;7.70;;;18.70;99.90;;;;;;4975943;28;20483;-71
2023/10/05 08:59:13;;;;;;;9.00;5.40;;;18.80;99.90;;;;;;4976265;28;20407;-71
2023/10/05 09:01:42;;;;;;;16.80;11.50;;;18.80;99.90;;;;;;4975335;28;20446;-72
2023/10/05 09:06:59;;;;;;;60.40;45.33;;;18.90;99.90;;;;;;4974464;28;20469;-71
2023/10/05 09:09:39;;;;;;;44.07;32.80;;;19.00;99.90;;;;;;4976101;28;20450;-80
2023/10/05 09:12:46;;;;;;;12.53;8.03;;;19.10;99.90;;;;;;4976002;28;20411;-81
2023/10/05 09:17:57;;;;;;;7.00;4.80;;;19.40;99.90;;;;;;4975304;28;20770;-82
2023/10/05 09:20:32;;;;;;;14.47;11.27;;;19.30;99.90;;;;;;4975868;28;20412;-81
2023/10/05 09:23:00;;;;;;;13.97;11.40;;;19.30;99.90;;;;;;4975224;28;20442;-79
2023/10/05 09:25:34;;;;;;;7.20;6.50;;;19.40;99.90;;;;;;4975151;28;20555;-80
2023/10/05 09:28:14;;;;;;;11.10;9.13;;;19.40;99.90;;;;;;4975069;28;20476;-80
2023/10/05 09:30:51;;;;;;;13.50;10.00;;;19.40;99.90;;;;;;4975155;28;20439;-80
2023/10/05 09:33:18;;;;;;;6.60;6.00;;;19.40;99.90;;;;;;4975625;28;20490;-81
2023/10/05 09:35:46;;;;;;;6.33;5.67;;;19.40;99.90;;;;;;4974995;28;20408;-80
2023/10/05 09:38:19;;;;;;;10.60;7.63;;;19.40;99.90;;;;;;4975502;28;20440;-84
2023/10/05 09:40:47;;;;;;;7.97;4.97;;;19.50;99.90;;;;;;4974970;28;20412;-81
2023/10/05 09:43:18;;;;;;;6.73;6.00;;;19.50;99.90;;;;;;4975080;28;20408;-80
2023/10/05 09:45:48;;;;;;;11.03;6.13;;;19.40;99.90;;;;;;4974801;28;20753;-81
2023/10/05 09:48:19;;;;;;;9.67;6.70;;;19.40;99.90;;;;;;4975253;28;20444;-81
2023/10/05 09:50:45;;;;;;;6.67;5.97;;;19.40;99.90;;;;;;4974731;28;20877;-81
2023/10/05 09:53:13;;;;;;;7.33;6.60;;;19.40;99.90;;;;;;4957186;28;20428;-79
2023/10/05 09:55:40;;;;;;;67.17;54.20;;;19.30;99.90;;;;;;4973931;28;20846;-78
2023/10/05 09:58:12;;;;;;;42.57;34.97;;;19.20;99.90;;;;;;4975333;28;20419;-82
2023/10/05 10:03:05;;;;;;;9.00;8.13;;;19.20;99.90;;;;;;4974776;28;20412;-80
2023/10/05 10:05:55;;;;;;;18.63;14.93;;;19.10;99.90;;;;;;4975026;28;20404;-81
2023/10/05 10:08:25;;;;;;;7.47;6.50;;;19.10;99.90;;;;;;4974979;28;20518;-85
2023/10/05 10:11:00;;;;;;;8.70;5.00;;;19.10;99.90;;;;;;4974076;28;20414;-81
2023/10/05 10:13:29;;;;;;;8.30;6.33;;;18.90;99.90;;;;;;4974843;28;20399;-81
2023/10/05 10:15:58;;;;;;;5.17;4.67;;;18.90;99.90;;;;;;4974225;28;20436;-83
2023/10/05 10:18:37;;;;;;;6.20;5.60;;;19.00;99.90;;;;;;4957031;28;20782;-81
2023/10/05 10:21:12;;;;;;;7.53;5.30;;;19.00;99.90;;;;;;4974803;28;20400;-80
2023/10/05 10:23:39;;;;;;;5.47;5.07;;;19.00;99.90;;;;;;4974206;28;20442;-82
2023/10/05 10:26:16;;;;;;;7.97;5.17;;;18.90;99.90;;;;;;4957257;28;20410;-82
2023/10/05 10:31:14;;;;;;;7.03;4.67;;;18.90;99.90;;;;;;4972664;28;20433;-82
2023/10/05 10:33:40;;;;;;;7.07;5.50;;;18.80;99.90;;;;;;4973903;28;20435;-80
2023/10/05 10:36:26;;;;;;;5.37;4.97;;;18.90;99.90;;;;;;4974540;28;20412;-82
2023/10/05 10:38:52;;;;;;;6.37;5.40;;;19.00;99.90;;;;;;4973956;28;20391;-82
2023/10/05 10:41:22;;;;;;;6.27;5.67;;;19.10;99.90;;;;;;4957257;28;20420;-83
2023/10/05 10:43:57;;;;;;;5.57;5.07;;;19.20;99.90;;;;;;4956373;28;20188;-84
2023/10/05 10:46:30;;;;;;;7.10;5.57;;;19.20;99.90;;;;;;4974309;28;20399;-83
2023/10/05 10:48:57;;;;;;;6.43;5.10;;;19.20;99.90;;;;;;4973630;28;20404;-83
2023/10/05 10:51:27;;;;;;;5.27;4.60;;;19.10;99.90;;;;;;4974221;28;20928;-80
2023/10/05 10:53:56;;;;;;;94.30;69.27;;;19.10;99.90;;;;;;4956234;28;20807;-80
2023/10/05 10:56:27;;;;;;;46.63;38.57;;;18.80;99.90;;;;;;4974116;28;20396;-77
2023/10/05 10:59:05;;;;;;;10.43;7.00;;;18.90;99.90;;;;;;4973580;28;20412;-83
2023/10/05 11:01:41;;;;;;;7.77;6.40;;;18.90;99.90;;;;;;4973499;28;20923;-72
2023/10/05 11:04:23;;;;;;;12.63;10.83;;;18.80;99.90;;;;;;4969220;28;20491;-72
2023/10/05 11:06:51;;;;;;;11.50;10.30;;;19.00;99.90;;;;;;4964490;28;20435;-73
2023/10/05 11:09:29;;;;;;;7.23;5.83;;;19.20;99.90;;;;;;4963636;28;20472;-73
2023/10/05 11:12:05;;;;;;;8.17;7.20;;;19.30;99.90;;;;;;4964086;28;20403;-72
2023/10/05 11:14:32;;;;;;;10.73;8.80;;;19.20;99.90;;;;;;4965033;28;20411;-73
2023/10/05 11:17:03;;;;;;;9.33;8.13;;;19.20;99.90;;;;;;4963942;28;20923;-74
2023/10/05 11:19:37;;;;;;;8.27;7.47;;;19.20;99.90;;;;;;4963784;28;20922;-73
2023/10/05 11:22:11;;;;;;;7.67;6.67;;;19.30;99.90;;;;;;4952962;29;20420;-72
2023/10/05 11:25:07;;;;;;;6.00;4.60;;;19.10;99.90;;;;;;4962559;28;20769;-72
2023/10/05 11:27:36;;;;;;;8.83;5.93;;;19.20;99.90;;;;;;4953569;28;20531;-73
2023/10/05 11:30:05;;;;;;;7.23;5.00;;;19.30;99.90;;;;;;4964776;28;20437;-72
2023/10/05 11:32:31;;;;;;;6.33;5.53;;;19.40;99.90;;;;;;4972555;28;20927;-73
2023/10/05 11:35:04;;;;;;;6.47;4.60;;;19.30;99.90;;;;;;4968718;28;20423;-72
2023/10/05 11:37:32;;;;;;;4.60;3.90;;;19.40;99.90;;;;;;4960620;28;20169;-73
2023/10/05 11:40:01;;;;;;;8.47;3.90;;;19.40;99.90;;;;;;4975642;28;21327;-73
2023/10/05 11:42:33;;;;;;;3.80;3.50;;;19.20;99.90;;;;;;4977334;28;20426;-72
2023/10/05 11:45:00;;;;;;;5.40;3.50;;;18.90;99.90;;;;;;4975989;28;20404;-72
2023/10/05 11:47:41;;;;;;;4.00;3.60;;;18.90;99.90;;;;;;4958430;28;20871;-72
2023/10/05 11:50:08;;;;;;;3.77;2.80;;;18.90;99.90;;;;;;4977501;28;20404;-72
2023/10/05 11:52:38;;;;;;;4.47;3.97;;;19.10;99.90;;;;;;4960054;28;20412;-74
2023/10/05 11:55:11;;;;;;;4.83;3.70;;;19.20;99.90;;;;;;4943804;28;20773;-73
2023/10/05 11:57:38;;;;;;;5.90;5.00;;;19.40;99.90;;;;;;4959715;28;20419;-73
2023/10/05 12:00:06;;;;;;;7.43;6.30;;;19.60;99.90;;;;;;4976984;28;20416;-72
2023/10/05 12:02:33;;;;;;;7.03;5.40;;;19.60;99.90;;;;;;4977018;28;20454;-72
2023/10/05 12:04:59;;;;;;;5.20;4.70;;;19.70;99.90;;;;;;4959440;28;20410;-72
2023/10/05 12:07:26;;;;;;;3.77;3.10;;;19.90;99.90;;;;;;4977207;28;20510;-72
2023/10/05 12:09:52;;;;;;;6.30;3.80;;;20.00;99.90;;;;;;4976827;28;20510;-71
2023/10/05 12:12:18;;;;;;;6.93;5.47;;;20.00;99.90;;;;;;4976957;28;20500;-73
2023/10/05 12:14:44;;;;;;;43.47;38.80;;;20.10;99.90;;;;;;4976394;28;20183;-72
2023/10/05 12:17:10;;;;;;;49.77;38.20;;;20.20;99.90;;;;;;4976183;28;20934;-74
2023/10/05 12:19:38;;;;;;;13.20;11.47;;;20.20;99.90;;;;;;4976494;28;20483;-71
2023/10/05 12:22:13;;;;;;;9.60;8.77;;;20.20;99.90;;;;;;4976464;28;20471;-73
2023/10/05 12:24:40;;;;;;;7.47;6.10;;;20.20;99.90;;;;;;4968411;28;20431;-72
2023/10/05 12:27:20;;;;;;;5.10;4.60;;;20.20;99.90;;;;;;4936299;29;20827;-72
2023/10/05 12:29:46;;;;;;;5.90;5.33;;;20.00;99.90;;;;;;4944053;28;20404;-73
2023/10/05 12:32:15;;;;;;;9.30;7.93;;;19.80;99.90;;;;;;4949599;29;20479;-74
2023/10/05 12:34:47;;;;;;;5.20;4.70;;;19.90;99.90;;;;;;4946193;29;20422;-72
2023/10/05 12:37:17;;;;;;;8.50;7.03;;;20.10;99.90;;;;;;4938472;29;20402;-72
2023/10/05 12:39:45;;;;;;;7.10;6.47;;;20.00;99.90;;;;;;4937512;29;20416;-71
2023/10/05 12:42:10;;;;;;;7.03;6.03;;;20.00;99.90;;;;;;4940561;29;20413;-72
2023/10/05 12:44:38;;;;;;;7.20;6.13;;;20.00;99.90;;;;;;4949370;29;20419;-73
2023/10/05 12:47:07;;;;;;;5.13;4.63;;;20.00;99.90;;;;;;4948558;29;20259;-74
2023/10/05 12:49:34;;;;;;;9.40;4.90;;;20.10;99.90;;;;;;4949901;29;20425;-73
2023/10/05 12:51:59;;;;;;;5.33;4.93;;;20.10;99.90;;;;;;4945437;29;20410;-72
2023/10/05 12:54:28;;;;;;;4.90;4.50;;;20.10;99.90;;;;;;4945672;29;20499;-73
2023/10/05 12:56:55;;;;;;;6.87;4.83;;;20.20;99.90;;;;;;4926756;29;20559;-72
2023/10/05 12:59:21;;;;;;;5.20;4.70;;;20.20;99.90;;;;;;4945163;29;20431;-65
2023/10/05 13:01:48;;;;;;;1325.23;663.07;;;20.10;99.90;;;;;;4953072;29;20432;-63
2023/10/05 13:04:16;;;;;;;247.23;167.87;;;20.10;99.90;;;;;;4955388;29;20508;-65
2023/10/05 13:06:45;;;;;;;19.20;16.93;;;20.10;99.90;;;;;;4956448;28;20408;-64
2023/10/05 13:09:12;;;;;;;5.57;5.00;;;20.10;99.90;;;;;;4939955;29;20472;-65
2023/10/05 13:11:44;;;;;;;5.50;5.10;;;20.10;99.90;;;;;;4939508;29;20484;-66
2023/10/05 13:14:14;;;;;;;6.97;6.37;;;20.10;99.90;;;;;;4956731;28;20937;-65
2023/10/05 13:16:54;;;;;;;5.40;4.97;;;20.10;99.90;;;;;;4956118;28;20455;-65
2023/10/05 13:19:20;;;;;;;5.33;4.80;;;20.10;99.90;;;;;;4955199;29;20417;-63
2023/10/05 13:21:46;;;;;;;5.90;5.40;;;20.20;99.90;;;;;;4954560;29;20424;-68
2023/10/05 13:24:12;;;;;;;5.47;5.07;;;20.10;99.90;;;;;;4949964;28;20495;-65
2023/10/05 13:26:45;;;;;;;6.17;5.57;;;20.10;99.90;;;;;;4956449;28;20784;-64
2023/10/05 13:29:12;;;;;;;7.67;6.00;;;20.20;99.90;;;;;;4974408;28;20431;-64
2023/10/05 13:31:39;;;;;;;6.50;5.90;;;20.10;99.90;;;;;;4975948;28;20538;-65